createdAt,value
2019-03-06T00:00:31.748Z,1.77
2019-03-06T00:02:59.984Z,1.50
2019-03-06T00:05:28.338Z,1.80
2019-03-06T00:07:56.923Z,1.97
2019-03-06T00:10:30.330Z,2.33
2019-03-06T00:12:58.558Z,2.20
2019-03-06T00:15:26.813Z,1.70
2019-03-06T00:17:55.049Z,2.00
2019-03-06T00:20:23.280Z,2.00
2019-03-06T00:22:51.945Z,2.13
2019-03-06T00:25:20.250Z,2.07
2019-03-06T00:27:48.477Z,2.00
2019-03-06T00:30:20.262Z,2.23
2019-03-06T00:32:48.496Z,2.20
2019-03-06T00:35:33.781Z,2.23
2019-03-06T00:38:02.119Z,2.57
2019-03-06T00:40:43.967Z,2.67
2019-03-06T00:43:12.215Z,2.93
2019-03-06T00:45:40.426Z,2.10
2019-03-06T00:48:08.772Z,2.27
2019-03-06T00:50:37.004Z,2.27
2019-03-06T00:53:05.257Z,3.07
2019-03-06T00:55:33.509Z,2.47
2019-03-06T00:58:01.740Z,2.63
2019-03-06T01:00:29.981Z,2.53
2019-03-06T01:02:58.501Z,2.63
2019-03-06T01:05:27.006Z,3.00
2019-03-06T01:07:55.247Z,2.57
2019-03-06T01:10:23.519Z,2.17
2019-03-06T01:12:53.284Z,2.80
2019-03-06T01:15:21.625Z,2.23
2019-03-06T01:17:50.253Z,2.60
2019-03-06T01:20:18.554Z,3.13
2019-03-06T01:22:46.857Z,3.47
2019-03-06T01:25:21.140Z,3.02
2019-03-06T01:27:50.996Z,2.60
2019-03-06T01:30:21.630Z,2.90
2019-03-06T01:33:08.049Z,3.07
2019-03-06T01:35:46.931Z,2.77
2019-03-06T01:38:33.331Z,3.10
2019-03-06T01:41:06.181Z,3.50
2019-03-06T01:43:42.127Z,3.87
2019-03-06T01:46:10.391Z,3.07
2019-03-06T01:48:38.622Z,3.03
2019-03-06T01:51:06.869Z,3.37
2019-03-06T01:53:35.101Z,4.50
2019-03-06T01:56:03.332Z,3.10
2019-03-06T01:58:31.669Z,3.37
2019-03-06T02:00:59.903Z,3.23
2019-03-06T02:03:28.146Z,3.87
2019-03-06T02:05:56.406Z,3.53
2019-03-06T02:08:24.621Z,3.17
2019-03-06T02:10:52.858Z,4.30
2019-03-06T02:13:23.107Z,3.03
2019-03-06T02:15:51.344Z,3.37
2019-03-06T02:18:19.582Z,3.70
2019-03-06T02:20:47.822Z,3.13
2019-03-06T02:23:16.071Z,3.02
2019-03-06T02:25:44.327Z,3.53
2019-03-06T02:28:12.668Z,3.50
2019-03-06T02:30:40.918Z,3.30
2019-03-06T02:33:09.141Z,3.30
2019-03-06T02:35:37.682Z,2.83
2019-03-06T02:38:05.989Z,3.67
2019-03-06T02:40:34.218Z,4.25
2019-03-06T02:43:02.480Z,4.13
2019-03-06T02:45:30.707Z,3.47
2019-03-06T02:47:59.012Z,2.97
2019-03-06T02:50:27.358Z,3.60
2019-03-06T02:52:55.593Z,3.23
2019-03-06T02:55:23.811Z,2.83
2019-03-06T02:57:56.699Z,3.40
2019-03-06T03:00:26.575Z,3.73
2019-03-06T03:03:02.399Z,3.30
2019-03-06T03:05:32.570Z,3.53
2019-03-06T03:08:02.431Z,3.20
2019-03-06T03:10:30.666Z,3.17
2019-03-06T03:12:59.619Z,2.83
2019-03-06T03:15:27.907Z,2.75
2019-03-06T03:17:56.162Z,2.67
2019-03-06T03:20:24.467Z,2.97
2019-03-06T03:22:52.693Z,2.67
2019-03-06T03:25:23.012Z,3.03
2019-03-06T03:27:51.055Z,2.70
2019-03-06T03:30:19.312Z,2.43
2019-03-06T03:32:47.567Z,2.52
2019-03-06T03:35:15.893Z,2.27
2019-03-06T03:37:44.140Z,2.40
2019-03-06T03:40:14.690Z,2.20
2019-03-06T03:42:44.594Z,2.60
2019-03-06T03:45:16.609Z,2.80
2019-03-06T03:47:44.821Z,2.50
2019-03-06T03:50:13.142Z,2.27
2019-03-06T03:52:41.647Z,2.70
2019-03-06T03:55:12.339Z,2.13
2019-03-06T03:57:40.679Z,2.60
2019-03-06T04:00:15.134Z,2.70
2019-03-06T04:02:43.362Z,2.33
2019-03-06T04:05:12.339Z,2.00
2019-03-06T04:07:40.575Z,2.20
2019-03-06T04:10:13.257Z,2.60
2019-03-06T04:12:41.578Z,2.53
2019-03-06T04:15:16.939Z,2.37
2019-03-06T04:17:45.173Z,2.47
2019-03-06T04:20:16.062Z,2.37
2019-03-06T04:22:44.359Z,2.10
2019-03-06T04:25:12.860Z,2.23
2019-03-06T04:27:41.114Z,2.57
2019-03-06T04:32:51.818Z,2.00
2019-03-06T04:35:20.110Z,2.70
2019-03-06T04:37:48.349Z,2.30
2019-03-06T04:40:16.992Z,2.70
2019-03-06T04:42:45.291Z,3.15
2019-03-06T04:45:15.650Z,2.90
2019-03-06T04:47:43.986Z,2.65
2019-03-06T04:50:13.161Z,2.67
2019-03-06T04:52:41.666Z,2.70
2019-03-06T04:55:12.360Z,2.37
2019-03-06T04:57:40.618Z,3.40
2019-03-06T05:00:17.711Z,2.63
2019-03-06T05:02:46.303Z,2.07
2019-03-06T05:05:14.540Z,2.57
2019-03-06T05:07:42.770Z,2.30
2019-03-06T05:10:12.166Z,2.70
2019-03-06T05:12:40.446Z,3.20
2019-03-06T05:15:11.012Z,2.40
2019-03-06T05:17:46.657Z,2.00
2019-03-06T05:20:14.885Z,2.47
2019-03-06T05:22:48.022Z,2.60
2019-03-06T05:25:16.276Z,2.37
2019-03-06T05:27:44.901Z,2.00
2019-03-06T05:30:14.769Z,2.03
2019-03-06T05:32:45.033Z,1.67
2019-03-06T05:35:19.633Z,1.70
2019-03-06T05:37:53.865Z,2.60
2019-03-06T05:40:22.119Z,2.15
2019-03-06T05:42:50.349Z,2.27
2019-03-06T05:45:18.622Z,2.60
2019-03-06T05:47:46.922Z,2.17
2019-03-06T05:50:15.465Z,2.20
2019-03-06T05:52:43.714Z,2.00
2019-03-06T05:55:11.985Z,2.30
2019-03-06T05:57:40.219Z,1.70
2019-03-06T06:00:11.933Z,2.40
2019-03-06T06:02:40.362Z,1.90
2019-03-06T06:05:11.589Z,2.50
2019-03-06T06:07:41.533Z,2.10
2019-03-06T06:10:11.894Z,1.43
2019-03-06T06:12:40.203Z,1.60
2019-03-06T06:15:16.874Z,1.80
2019-03-06T06:17:50.219Z,1.93
2019-03-06T06:20:20.082Z,1.67
2019-03-06T06:22:58.966Z,2.13
2019-03-06T06:25:28.044Z,1.57
2019-03-06T06:27:56.308Z,1.53
2019-03-06T06:30:25.075Z,1.73
2019-03-06T06:32:53.310Z,1.80
2019-03-06T06:35:21.936Z,1.43
2019-03-06T06:37:50.201Z,1.63
2019-03-06T06:40:18.444Z,1.92
2019-03-06T06:42:46.682Z,1.43
2019-03-06T06:45:17.010Z,2.00
2019-03-06T06:48:08.012Z,1.43
2019-03-06T06:50:39.074Z,1.33
2019-03-06T06:53:27.279Z,1.60
2019-03-06T06:56:10.128Z,1.43
2019-03-06T06:59:06.055Z,1.47
2019-03-06T07:02:04.133Z,1.17
2019-03-06T07:05:05.345Z,1.60
2019-03-06T07:07:41.092Z,1.53
2019-03-06T07:10:19.760Z,1.50
2019-03-06T07:12:49.792Z,1.90
2019-03-06T07:15:23.216Z,1.90
2019-03-06T07:17:53.282Z,1.80
2019-03-06T07:20:23.231Z,1.42
2019-03-06T07:22:53.177Z,1.90
2019-03-06T07:25:32.476Z,1.60
2019-03-06T07:28:05.165Z,1.90
2019-03-06T07:30:40.766Z,1.93
2019-03-06T07:33:13.843Z,2.10
2019-03-06T07:35:59.697Z,1.87
2019-03-06T07:38:28.216Z,2.00
2019-03-06T07:41:14.767Z,1.80
2019-03-06T07:43:53.491Z,1.97
2019-03-06T07:46:26.096Z,2.33
2019-03-06T07:49:12.697Z,1.83
2019-03-06T07:51:45.587Z,1.60
2019-03-06T07:54:21.468Z,1.85
2019-03-06T07:56:51.333Z,1.77
2019-03-06T07:59:19.825Z,1.70
2019-03-06T08:01:54.085Z,2.23
2019-03-06T08:04:22.351Z,2.20
2019-03-06T08:06:52.317Z,2.27
2019-03-06T08:09:20.827Z,2.40
2019-03-06T08:11:50.812Z,3.27
2019-03-06T08:14:24.233Z,1.90
2019-03-06T08:16:57.108Z,2.43
2019-03-06T08:19:29.959Z,1.97
2019-03-06T08:22:05.135Z,2.53
2019-03-06T08:24:38.329Z,1.70
2019-03-06T08:27:06.649Z,2.50
2019-03-06T08:29:35.292Z,2.53
2019-03-06T08:32:04.402Z,2.77
2019-03-06T08:34:33.018Z,2.57
2019-03-06T08:37:01.345Z,2.50
2019-03-06T08:39:29.674Z,2.40
2019-03-06T08:41:57.923Z,2.37
2019-03-06T08:44:26.174Z,2.50
2019-03-06T08:46:56.072Z,2.50
2019-03-06T08:49:34.776Z,2.40
2019-03-06T08:52:07.717Z,2.37
2019-03-06T08:54:53.948Z,2.43
2019-03-06T08:57:42.198Z,2.70
2019-03-06T09:00:19.714Z,2.50
2019-03-06T09:03:10.225Z,1.90
2019-03-06T09:05:52.406Z,2.23
2019-03-06T09:08:22.585Z,2.35
2019-03-06T09:11:02.745Z,1.80
2019-03-06T09:13:29.996Z,1.73
2019-03-06T09:15:59.877Z,1.90
2019-03-06T09:18:33.183Z,1.77
2019-03-06T09:21:14.903Z,1.97
2019-03-06T09:23:47.787Z,1.60
2019-03-06T09:26:27.068Z,1.57
2019-03-06T09:29:00.913Z,1.80
2019-03-06T09:31:43.778Z,1.70
2019-03-06T09:34:16.680Z,1.70
2019-03-06T09:37:02.822Z,1.63
2019-03-06T09:39:36.420Z,2.27
2019-03-06T09:42:23.592Z,1.80
2019-03-06T09:44:53.628Z,1.50
2019-03-06T09:47:26.390Z,1.40
2019-03-06T09:49:56.287Z,1.87
2019-03-06T09:52:42.348Z,1.80
2019-03-06T09:55:12.407Z,1.77
2019-03-06T09:58:00.402Z,1.57
2019-03-06T10:00:32.118Z,1.50
2019-03-06T10:03:18.586Z,1.77
2019-03-06T10:06:05.119Z,1.70
2019-03-06T10:08:40.650Z,1.67
2019-03-06T10:11:10.552Z,1.60
2019-03-06T10:13:57.470Z,1.83
2019-03-06T10:16:27.389Z,1.60
2019-03-06T10:19:00.672Z,1.60
2019-03-06T10:21:29.160Z,1.73
2019-03-06T10:23:57.465Z,1.27
2019-03-06T10:26:26.090Z,1.40
2019-03-06T10:28:54.398Z,1.10
2019-03-06T10:31:22.709Z,1.07
2019-03-06T10:33:51.168Z,1.43
2019-03-06T10:36:19.486Z,1.17
2019-03-06T10:38:47.811Z,1.40
2019-03-06T10:41:16.546Z,1.13
2019-03-06T10:43:49.616Z,1.25
2019-03-06T10:46:14.926Z,1.43
2019-03-06T10:48:43.237Z,1.20
2019-03-06T10:51:11.971Z,1.30
2019-03-06T10:53:41.508Z,1.10
2019-03-06T10:56:10.247Z,1.13
2019-03-06T10:58:38.577Z,1.50
2019-03-06T11:01:06.913Z,1.37
2019-03-06T11:03:39.519Z,1.23
2019-03-06T11:06:08.133Z,1.80
2019-03-06T11:08:36.453Z,1.30
2019-03-06T11:11:05.261Z,1.50
2019-03-06T11:13:36.561Z,1.50
2019-03-06T11:16:05.976Z,1.50
2019-03-06T11:18:34.283Z,1.30
2019-03-06T11:21:02.609Z,1.73
2019-03-06T11:23:30.950Z,1.30
2019-03-06T11:25:59.186Z,1.20
2019-03-06T11:28:27.509Z,1.50
2019-03-06T11:30:59.416Z,1.67
2019-03-06T11:33:27.961Z,1.83
2019-03-06T11:35:58.026Z,1.67
2019-03-06T11:38:27.193Z,1.90
2019-03-06T11:40:55.889Z,1.20
2019-03-06T11:43:24.898Z,1.30
2019-03-06T11:45:53.131Z,1.40
2019-03-06T11:48:21.357Z,1.85
2019-03-06T11:50:49.684Z,1.57
2019-03-06T11:53:17.993Z,1.57
2019-03-06T11:55:46.221Z,1.50
2019-03-06T11:58:17.785Z,1.27
2019-03-06T12:00:49.054Z,1.63
2019-03-06T12:03:19.329Z,1.55
2019-03-06T12:05:48.048Z,1.53
2019-03-06T12:08:17.732Z,1.87
2019-03-06T12:10:46.183Z,1.13
2019-03-06T12:13:15.858Z,1.60
2019-03-06T12:15:46.785Z,1.67
2019-03-06T12:18:15.082Z,1.82
2019-03-06T12:20:43.726Z,1.57
2019-03-06T12:23:12.039Z,1.70
2019-03-06T12:25:40.578Z,1.70
2019-03-06T12:28:10.158Z,1.33
2019-03-06T12:30:38.717Z,1.30
2019-03-06T12:33:08.325Z,1.27
2019-03-06T12:35:36.871Z,1.47
2019-03-06T12:38:05.334Z,1.30
2019-03-06T12:40:33.582Z,1.60
2019-03-06T12:43:01.842Z,1.37
2019-03-06T12:45:30.416Z,1.10
2019-03-06T12:48:04.529Z,1.13
2019-03-06T12:50:38.325Z,1.90
2019-03-06T12:53:06.585Z,1.40
2019-03-06T12:55:34.845Z,1.17
2019-03-06T12:58:03.177Z,1.33
2019-03-06T13:00:31.486Z,1.40
2019-03-06T13:02:59.702Z,1.50
2019-03-06T13:05:27.960Z,1.75
2019-03-06T13:07:59.392Z,1.73
2019-03-06T13:10:27.699Z,1.73
2019-03-06T13:12:56.015Z,1.63
2019-03-06T13:15:27.340Z,1.45
2019-03-06T13:17:55.835Z,1.60
2019-03-06T13:20:24.175Z,1.53
2019-03-06T13:22:53.713Z,1.40
2019-03-06T13:25:22.871Z,1.33
2019-03-06T13:27:54.881Z,1.70
2019-03-06T13:30:22.815Z,1.67
2019-03-06T13:33:01.999Z,1.47
2019-03-06T13:35:32.226Z,1.33
2019-03-06T13:38:00.457Z,1.50
2019-03-06T13:40:30.422Z,1.53
2019-03-06T13:42:58.930Z,1.40
2019-03-06T13:45:27.165Z,1.95
2019-03-06T13:47:55.815Z,1.60
2019-03-06T13:50:24.658Z,1.47
2019-03-06T13:52:53.157Z,1.40
2019-03-06T13:55:21.466Z,1.40
2019-03-06T13:57:49.705Z,1.23
2019-03-06T14:00:20.510Z,1.53
2019-03-06T14:02:49.845Z,1.40
2019-03-06T14:05:19.092Z,1.15
2019-03-06T14:07:55.937Z,1.10
2019-03-06T14:10:25.515Z,1.23
2019-03-06T14:12:54.034Z,1.23
2019-03-06T14:15:22.274Z,1.40
2019-03-06T14:17:50.514Z,1.30
2019-03-06T14:20:23.260Z,1.40
2019-03-06T14:22:51.731Z,1.60
2019-03-06T14:25:20.103Z,1.40
2019-03-06T14:27:48.612Z,1.67
2019-03-06T14:30:25.187Z,1.32
2019-03-06T14:32:53.452Z,1.27
2019-03-06T14:35:21.742Z,1.70
2019-03-06T14:37:50.319Z,1.57
2019-03-06T14:40:31.829Z,1.02
2019-03-06T14:43:00.785Z,1.37
2019-03-06T14:45:29.091Z,1.85
2019-03-06T14:47:57.569Z,1.50
2019-03-06T14:50:25.821Z,1.40
2019-03-06T14:52:54.202Z,1.50
2019-03-06T14:55:22.478Z,1.00
2019-03-06T14:57:53.824Z,1.40
2019-03-06T15:00:22.145Z,1.40
2019-03-06T15:02:50.402Z,1.40
2019-03-06T15:05:19.234Z,1.20
2019-03-06T15:07:47.883Z,1.10
2019-03-06T15:10:17.136Z,1.20
2019-03-06T15:12:45.493Z,1.33
2019-03-06T15:15:20.434Z,1.00
2019-03-06T15:17:48.761Z,1.30
2019-03-06T15:20:26.898Z,1.65
2019-03-06T15:22:55.392Z,1.67
2019-03-06T15:25:26.036Z,1.40
2019-03-06T15:27:54.365Z,1.97
2019-03-06T15:30:22.679Z,2.13
2019-03-06T15:32:51.078Z,1.17
2019-03-06T15:35:20.256Z,1.50
2019-03-06T15:37:48.598Z,1.57
2019-03-06T15:40:31.888Z,1.47
2019-03-06T15:43:07.570Z,1.30
2019-03-06T15:45:34.990Z,1.20
2019-03-06T15:48:04.613Z,1.33
2019-03-06T15:50:32.917Z,1.40
2019-03-06T15:53:01.230Z,1.27
2019-03-06T15:55:30.159Z,1.50
2019-03-06T15:57:58.512Z,1.20
2019-03-06T16:00:46.380Z,1.80
2019-03-06T16:03:12.814Z,1.47
2019-03-06T16:05:41.465Z,1.90
2019-03-06T16:08:10.874Z,1.60
2019-03-06T16:10:39.613Z,1.63
2019-03-06T16:13:07.892Z,1.20
2019-03-06T16:15:36.214Z,1.40
2019-03-06T16:18:09.343Z,1.63
2019-03-06T16:20:37.589Z,1.40
2019-03-06T16:23:05.907Z,1.63
2019-03-06T16:25:37.973Z,1.47
2019-03-06T16:28:04.254Z,1.47
2019-03-06T16:30:32.646Z,1.80
2019-03-06T16:33:00.976Z,1.20
2019-03-06T16:35:29.274Z,1.50
2019-03-06T16:37:57.522Z,1.40
2019-03-06T16:40:26.291Z,1.43
2019-03-06T16:42:54.684Z,1.40
2019-03-06T16:45:25.327Z,1.30
2019-03-06T16:47:53.646Z,1.37
2019-03-06T16:50:22.237Z,1.47
2019-03-06T16:52:50.508Z,1.40
2019-03-06T16:55:22.724Z,1.50
2019-03-06T16:57:50.961Z,1.20
2019-03-06T17:00:25.179Z,1.50
2019-03-06T17:02:55.460Z,1.47
2019-03-06T17:05:23.874Z,1.33
2019-03-06T17:07:52.365Z,1.13
2019-03-06T17:10:22.409Z,1.60
2019-03-06T17:12:50.657Z,1.90
2019-03-06T17:15:20.304Z,1.50
2019-03-06T17:17:48.543Z,2.10
2019-03-06T17:20:26.032Z,1.60
2019-03-06T17:22:57.284Z,1.72
2019-03-06T17:25:28.036Z,2.07
2019-03-06T17:27:55.618Z,1.83
2019-03-06T17:30:28.263Z,1.60
2019-03-06T17:33:05.992Z,1.37
2019-03-06T17:35:34.691Z,1.30
2019-03-06T17:38:03.707Z,1.23
2019-03-06T17:40:32.029Z,1.43
2019-03-06T17:43:00.353Z,1.70
2019-03-06T17:45:28.578Z,1.60
2019-03-06T17:47:56.946Z,1.63
2019-03-06T17:50:25.554Z,1.70
2019-03-06T17:52:53.820Z,2.10
2019-03-06T17:55:22.136Z,1.60
2019-03-06T17:57:52.310Z,1.60
2019-03-06T18:00:26.895Z,1.70
2019-03-06T18:02:55.480Z,2.00
2019-03-06T18:05:23.705Z,2.08
2019-03-06T18:07:51.966Z,2.10
2019-03-06T18:10:20.210Z,2.10
2019-03-06T18:12:48.530Z,1.60
2019-03-06T18:15:18.107Z,1.70
2019-03-06T18:17:47.212Z,2.00
2019-03-06T18:20:19.108Z,2.10
2019-03-06T18:22:47.525Z,1.90
2019-03-06T18:25:24.139Z,2.00
2019-03-06T18:27:52.600Z,1.87
2019-03-06T18:30:22.637Z,2.07
2019-03-06T18:32:53.850Z,2.27
2019-03-06T18:35:22.239Z,2.30
2019-03-06T18:37:50.748Z,2.17
2019-03-06T18:40:23.264Z,1.72
2019-03-06T18:42:51.495Z,2.60
2019-03-06T18:45:20.769Z,1.80
2019-03-06T18:47:49.063Z,2.03
2019-03-06T18:50:19.469Z,2.08
2019-03-06T18:52:48.147Z,2.17
2019-03-06T18:55:17.393Z,2.10
2019-03-06T18:57:45.697Z,1.67
2019-03-06T19:00:17.021Z,2.70
2019-03-06T19:02:47.161Z,1.60
2019-03-06T19:05:15.650Z,2.20
2019-03-06T19:07:43.930Z,2.00
2019-03-06T19:10:21.831Z,2.23
2019-03-06T19:12:50.446Z,2.20
2019-03-06T19:15:21.016Z,2.17
2019-03-06T19:17:49.249Z,2.20
2019-03-06T19:20:18.919Z,2.80
2019-03-06T19:22:47.406Z,2.80
2019-03-06T19:25:32.673Z,2.07
2019-03-06T19:28:42.264Z,2.03
2019-03-06T19:31:36.510Z,2.30
2019-03-06T19:36:56.866Z,2.50
2019-03-06T19:39:25.113Z,2.13
2019-03-06T19:41:53.454Z,2.30
2019-03-06T19:44:21.707Z,2.50
2019-03-06T19:46:50.152Z,2.73
2019-03-06T19:49:18.554Z,2.27
2019-03-06T19:51:51.582Z,2.83
2019-03-06T19:54:16.873Z,2.70
2019-03-06T19:56:48.051Z,2.53
2019-03-06T19:59:16.286Z,2.17
2019-03-06T20:01:44.739Z,2.50
2019-03-06T20:04:13.284Z,2.50
2019-03-06T20:06:41.616Z,2.13
2019-03-06T20:09:24.591Z,2.10
2019-03-06T20:11:52.969Z,2.90
2019-03-06T20:14:33.446Z,3.43
2019-03-06T20:17:04.837Z,2.37
2019-03-06T20:19:33.349Z,2.20
2019-03-06T20:22:02.203Z,2.43
2019-03-06T20:24:30.773Z,2.67
2019-03-06T20:26:59.092Z,2.90
2019-03-06T20:29:27.656Z,2.37
2019-03-06T20:34:44.290Z,2.20
2019-03-06T20:37:12.618Z,3.00
2019-03-06T20:39:40.888Z,3.27
2019-03-06T20:42:10.425Z,3.03
2019-03-06T20:44:38.671Z,2.77
2019-03-06T20:47:07.318Z,2.60
2019-03-06T20:49:35.649Z,3.20
2019-03-06T20:52:05.059Z,2.40
2019-03-06T20:54:33.904Z,2.57
2019-03-06T20:57:02.159Z,2.87
2019-03-06T20:59:32.568Z,2.80
2019-03-06T21:02:00.851Z,3.60
2019-03-06T21:04:29.207Z,2.90
2019-03-06T21:07:01.402Z,3.43
2019-03-06T21:09:30.076Z,2.63
2019-03-06T21:11:58.579Z,3.00
2019-03-06T21:14:31.959Z,2.90
2019-03-06T21:17:02.264Z,3.23
2019-03-06T21:19:30.871Z,2.63
2019-03-06T21:21:59.324Z,2.90
2019-03-06T21:24:27.712Z,2.73
2019-03-06T21:26:56.033Z,2.20
2019-03-06T21:29:26.941Z,2.97
2019-03-06T21:31:55.179Z,2.33
2019-03-06T21:34:23.455Z,2.92
2019-03-06T21:36:51.787Z,3.30
2019-03-06T21:39:22.885Z,3.50
2019-03-06T21:41:51.216Z,3.03
2019-03-06T21:44:21.186Z,3.42
2019-03-06T21:46:49.547Z,2.90
2019-03-06T21:49:17.877Z,3.27
2019-03-06T21:51:46.368Z,3.30
2019-03-06T21:54:14.666Z,3.05
2019-03-06T21:56:43.152Z,3.27
2019-03-06T21:59:11.388Z,2.37
2019-03-06T22:01:39.712Z,2.60
2019-03-06T22:04:07.944Z,2.93
2019-03-06T22:06:36.286Z,2.63
2019-03-06T22:09:05.697Z,3.33
2019-03-06T22:11:34.122Z,3.30
2019-03-06T22:14:02.360Z,2.80
2019-03-06T22:16:30.606Z,3.07
2019-03-06T22:19:01.082Z,2.77
2019-03-06T22:21:29.398Z,2.90
2019-03-06T22:23:57.684Z,3.17
2019-03-06T22:26:26.215Z,2.97
2019-03-06T22:28:54.473Z,2.93
2019-03-06T22:31:34.973Z,2.52
2019-03-06T22:34:03.581Z,2.80
2019-03-06T22:36:31.876Z,2.60
2019-03-06T22:39:00.283Z,2.67
2019-03-06T22:41:28.828Z,2.60
2019-03-06T22:43:57.065Z,3.00
2019-03-06T22:46:25.325Z,2.40
2019-03-06T22:48:53.581Z,2.60
2019-03-06T22:51:21.813Z,2.40
2019-03-06T22:53:50.047Z,2.90
2019-03-06T22:56:18.368Z,2.73
2019-03-06T22:58:46.657Z,2.70
2019-03-06T23:01:23.881Z,2.73
2019-03-06T23:03:52.489Z,3.03
2019-03-06T23:06:20.861Z,2.40
2019-03-06T23:08:51.431Z,2.40
2019-03-06T23:11:19.572Z,2.67
2019-03-06T23:13:47.903Z,2.30
2019-03-06T23:16:16.186Z,2.30
2019-03-06T23:18:44.455Z,2.77
2019-03-06T23:21:15.678Z,2.40
2019-03-06T23:23:45.536Z,3.00
2019-03-06T23:26:13.895Z,2.55
2019-03-06T23:28:42.278Z,2.60
2019-03-06T23:31:12.991Z,2.70
2019-03-06T23:33:41.450Z,3.03
2019-03-06T23:36:09.705Z,2.33
2019-03-06T23:38:37.944Z,2.40
2019-03-06T23:43:53.964Z,2.27
2019-03-06T23:46:22.275Z,2.33
2019-03-06T23:48:50.805Z,2.90
2019-03-06T23:51:20.776Z,2.60
2019-03-06T23:53:50.775Z,2.40
2019-03-06T23:56:19.092Z,3.07
2019-03-06T23:58:47.453Z,2.13
